Time;durP1;ratioP1;P1;durP2;ratioP2;P2;SDS_P1;SDS_P2;PMS_P1;PMS_P2;Temp;Humidity;BMP_temperature;BMP_pressure;BME280_temperature;BME280_humidity;BME280_pressure;Samples;Min_cycle;Max_cycle;Signal;HPM_P1;HPM_P2
2021/12/15 00:00:12;;;;;;;29.67;18.03;;;;;;;6.66;100.00;100511.13;5035028;28;20717;-85
2021/12/15 00:02:43;;;;;;;25.97;16.90;;;;;;;6.82;100.00;100501.94;5036285;28;20361;-85
2021/12/15 00:05:20;;;;;;;27.97;17.60;;;;;;;6.77;100.00;100501.19;5033657;28;20228;-84
2021/12/15 00:07:51;;;;;;;27.90;16.60;;;;;;;6.96;100.00;100497.16;5034414;28;20189;-85
2021/12/15 00:10:20;;;;;;;25.93;16.67;;;;;;;6.81;100.00;100498.44;5055428;28;20187;-85
2021/12/15 00:12:49;;;;;;;25.90;17.37;;;;;;;6.87;100.00;100495.63;5110948;28;20206;-84
2021/12/15 00:15:19;;;;;;;30.13;17.37;;;;;;;7.02;100.00;100501.38;5115917;28;20187;-85
2021/12/15 00:17:47;;;;;;;29.20;17.90;;;;;;;6.96;100.00;100499.78;5109057;28;20218;-85
2021/12/15 00:20:17;;;;;;;29.50;18.27;;;;;;;6.76;100.00;100496.84;5116053;28;20196;-85
2021/12/15 00:22:51;;;;;;;29.43;17.17;;;;;;;6.74;100.00;100498.63;5110172;28;20183;-84
2021/12/15 00:25:24;;;;;;;28.33;18.10;;;;;;;6.73;100.00;100492.50;5114645;28;20190;-85
2021/12/15 00:27:52;;;;;;;32.37;17.40;;;;;;;6.83;100.00;100496.59;5112911;28;20206;-84
2021/12/15 00:30:22;;;;;;;31.67;18.53;;;;;;;6.94;100.00;100500.72;5103387;28;20209;-84
2021/12/15 00:32:51;;;;;;;34.33;18.87;;;;;;;6.89;100.00;100503.50;5115644;28;20729;-85
2021/12/15 00:35:21;;;;;;;34.80;18.57;;;;;;;6.86;100.00;100508.84;5112893;28;20206;-84
2021/12/15 00:37:51;;;;;;;37.13;20.07;;;;;;;6.93;100.00;100514.78;5104901;28;20680;-85
2021/12/15 00:40:24;;;;;;;34.33;19.20;;;;;;;6.98;100.00;100516.41;5110753;28;20217;-85
2021/12/15 00:42:53;;;;;;;39.27;21.67;;;;;;;6.70;100.00;100520.69;5112718;28;20199;-85
2021/12/15 00:45:22;;;;;;;33.07;20.00;;;;;;;6.70;100.00;100520.69;5109636;28;20671;-85
2021/12/15 00:47:50;;;;;;;32.80;20.13;;;;;;;6.70;100.00;100520.69;5107792;28;20187;-85
2021/12/15 00:50:21;;;;;;;37.07;20.40;;;;;;;6.72;100.00;100522.38;5103800;28;20254;-84
2021/12/15 00:52:49;;;;;;;38.23;20.03;;;;;;;6.91;100.00;100519.25;5115121;28;20668;-85
2021/12/15 00:55:23;;;;;;;37.27;20.77;;;;;;;6.94;100.00;100509.47;5110913;28;20198;-85
2021/12/15 00:57:51;;;;;;;35.97;21.60;;;;;;;6.73;100.00;100513.56;5139599;28;20175;-83
2021/12/15 01:00:23;;;;;;;35.20;19.57;;;;;;;6.75;100.00;100521.41;5113551;28;20211;-85
2021/12/15 01:02:53;;;;;;;34.27;20.43;;;;;;;6.74;100.00;100512.66;5112504;28;20334;-85
2021/12/15 01:05:24;;;;;;;34.80;19.77;;;;;;;6.81;100.00;100506.31;5114855;28;20218;-85
2021/12/15 01:07:53;;;;;;;35.73;20.47;;;;;;;6.64;100.00;100500.63;5112038;28;20202;-85
2021/12/15 01:10:31;;;;;;;31.33;18.07;;;;;;;6.76;100.00;100502.09;5110014;28;20235;-85
2021/12/15 01:21:19;;;;;;;35.80;18.83;;;;;;;6.54;100.00;100499.16;5115153;28;20217;-85
2021/12/15 01:23:47;;;;;;;34.47;20.13;;;;;;;6.62;100.00;100510.34;5114840;28;20632;-85
2021/12/15 01:26:17;;;;;;;40.20;20.50;;;;;;;6.50;100.00;100505.41;5109687;28;20194;-85
2021/12/15 01:28:45;;;;;;;35.13;20.40;;;;;;;6.62;100.00;100504.22;5105869;28;20198;-85
2021/12/15 01:31:14;;;;;;;35.53;22.03;;;;;;;6.45;100.00;100504.66;5114381;28;20227;-86
2021/12/15 01:33:43;;;;;;;39.73;21.40;;;;;;;6.42;100.00;100510.00;5109561;28;20198;-86
2021/12/15 01:36:12;;;;;;;38.00;21.10;;;;;;;6.46;100.00;100507.25;5114538;28;20191;-85
2021/12/15 01:38:45;;;;;;;34.13;19.80;;;;;;;6.60;100.00;100514.81;5114651;28;20252;-85
2021/12/15 01:41:20;;;;;;;38.07;21.13;;;;;;;6.51;100.00;100518.53;5110824;28;20213;-85
2021/12/15 01:49:33;;;;;;;33.87;19.40;;;;;;;6.65;100.00;100522.56;5098881;28;20198;-86
2021/12/15 01:52:06;;;;;;;38.23;20.97;;;;;;;6.76;100.00;100521.41;5114419;28;20645;-86
2021/12/15 01:54:36;;;;;;;37.83;20.37;;;;;;;6.66;100.00;100524.28;5108943;28;20199;-86
2021/12/15 01:57:08;;;;;;;34.87;19.83;;;;;;;6.74;100.00;100530.22;5106690;28;20224;-87
2021/12/15 01:59:38;;;;;;;33.57;19.30;;;;;;;6.62;100.00;100530.56;5103656;28;20223;-86
2021/12/15 02:02:08;;;;;;;31.17;19.37;;;;;;;6.54;100.00;100530.75;5111129;28;20203;-86
2021/12/15 02:04:38;;;;;;;35.13;19.97;;;;;;;6.63;100.00;100533.13;5106869;28;20199;-87
2021/12/15 02:07:13;;;;;;;32.93;19.87;;;;;;;6.73;100.00;100533.75;5109568;28;20202;-86
2021/12/15 02:09:54;;;;;;;35.17;19.90;;;;;;;6.69;100.00;100533.00;5104574;28;20202;-87
2021/12/15 02:12:26;;;;;;;36.27;20.23;;;;;;;6.60;100.00;100534.09;5109923;28;20191;-88
2021/12/15 02:14:56;;;;;;;35.43;20.30;;;;;;;6.54;100.00;100539.50;5108197;28;20203;-86
2021/12/15 02:17:25;;;;;;;35.87;20.97;;;;;;;6.41;100.00;100538.09;5071669;28;20195;-87
2021/12/15 02:19:54;;;;;;;34.43;19.47;;;;;;;6.35;100.00;100527.69;5069426;28;20216;-86
2021/12/15 02:22:27;;;;;;;37.70;21.37;;;;;;;6.38;100.00;100527.66;5071128;28;20188;-87
2021/12/15 02:24:55;;;;;;;32.53;19.80;;;;;;;6.47;100.00;100527.41;5064306;28;20192;-86
2021/12/15 02:27:31;;;;;;;34.70;21.23;;;;;;;6.57;100.00;100534.19;5066689;28;20350;-87
2021/12/15 02:30:06;;;;;;;32.67;19.63;;;;;;;6.51;100.00;100533.47;5066932;28;20188;-87
2021/12/15 02:32:47;;;;;;;35.43;20.27;;;;;;;6.56;100.00;100535.09;5048446;28;20259;-87
2021/12/15 02:38:03;;;;;;;38.13;22.30;;;;;;;6.34;100.00;100530.38;5091892;28;20241;-87
2021/12/15 02:40:32;;;;;;;36.97;20.37;;;;;;;6.42;100.00;100529.28;5089044;28;20212;-86
2021/12/15 02:43:01;;;;;;;36.07;21.27;;;;;;;6.49;100.00;100530.88;5090601;28;20230;-85
2021/12/15 02:45:29;;;;;;;36.20;20.47;;;;;;;6.55;100.00;100535.09;5087949;28;20191;-86
2021/12/15 02:47:58;;;;;;;39.87;21.93;;;;;;;6.33;100.00;100529.50;5089030;28;20207;-86
2021/12/15 02:50:29;;;;;;;39.77;21.63;;;;;;;6.42;100.00;100534.56;5088787;28;20225;-87
2021/12/15 02:53:00;;;;;;;38.37;22.30;;;;;;;6.39;100.00;100531.16;5035031;28;20205;-86
2021/12/15 02:55:31;;;;;;;39.13;22.10;;;;;;;6.51;100.00;100525.56;5028606;28;20194;-87
2021/12/15 02:57:59;;;;;;;37.17;21.40;;;;;;;6.37;100.00;100530.28;5032312;28;20205;-86
2021/12/15 03:00:36;;;;;;;38.70;21.87;;;;;;;6.42;100.00;100531.91;5030114;28;20225;-87
2021/12/15 03:03:32;;;;;;;39.20;21.03;;;;;;;6.49;100.00;100532.63;5031299;28;20198;-87
2021/12/15 03:06:06;;;;;;;32.63;19.73;;;;;;;6.53;100.00;100535.16;5034980;28;20202;-86
2021/12/15 03:08:52;;;;;;;33.90;20.83;;;;;;;6.56;100.00;100529.81;5030199;28;20196;-86
2021/12/15 03:16:59;;;;;;;35.30;20.23;;;;;;;6.49;100.00;100522.13;5096888;28;20188;-87
2021/12/15 03:19:27;;;;;;;32.90;20.50;;;;;;;6.44;100.00;100524.84;5094027;28;20192;-86
2021/12/15 03:21:56;;;;;;;36.70;20.83;;;;;;;6.46;100.00;100520.41;5092189;28;20184;-87
2021/12/15 03:24:27;;;;;;;35.13;20.30;;;;;;;6.51;100.00;100525.56;5095779;28;20191;-87
2021/12/15 03:27:03;;;;;;;31.70;19.33;;;;;;;6.44;100.00;100529.25;5090728;28;20204;-87
2021/12/15 03:35:32;;;;;;;30.97;19.17;;;;;;;6.46;100.00;100527.44;5060078;28;20197;-87
2021/12/15 03:38:03;;;;;;;33.90;18.77;;;;;;;6.38;100.00;100530.28;5113978;28;20187;-87
2021/12/15 03:40:39;;;;;;;35.03;19.83;;;;;;;6.41;100.00;100527.56;5108128;28;20217;-86
2021/12/15 03:43:12;;;;;;;31.50;19.17;;;;;;;6.38;100.00;100530.28;5111863;28;20197;-86
2021/12/15 03:45:44;;;;;;;31.07;18.57;;;;;;;6.45;100.00;100533.59;5117892;28;20206;-86
2021/12/15 03:48:15;;;;;;;31.43;19.60;;;;;;;6.55;100.00;100527.19;5106088;28;20203;-86
2021/12/15 03:50:46;;;;;;;33.17;19.80;;;;;;;6.40;100.00;100531.09;5114286;28;20195;-86
2021/12/15 03:53:16;;;;;;;33.60;19.83;;;;;;;6.44;100.00;100523.97;5113705;28;20203;-87
2021/12/15 03:55:45;;;;;;;29.77;18.67;;;;;;;6.52;100.00;100522.03;5112863;28;20191;-86
2021/12/15 03:58:16;;;;;;;31.60;19.57;;;;;;;6.53;100.00;100527.25;5109145;28;20191;-87
2021/12/15 04:00:50;;;;;;;44.07;21.73;;;;;;;6.31;100.00;100524.28;5112355;28;20218;-86
2021/12/15 04:03:22;;;;;;;41.93;21.27;;;;;;;6.32;100.00;100527.78;5127707;28;20198;-83
2021/12/15 04:05:52;;;;;;;40.73;20.77;;;;;;;6.47;100.00;100526.56;5118139;28;20237;-86
2021/12/15 04:08:22;;;;;;;56.97;23.80;;;;;;;6.35;100.00;100521.56;5105026;28;20202;-86
2021/12/15 04:10:51;;;;;;;47.27;23.50;;;;;;;6.23;100.00;100528.88;5115049;28;20187;-85
2021/12/15 04:13:22;;;;;;;47.90;21.20;;;;;;;6.18;100.00;100533.41;5113555;28;20694;-86
2021/12/15 04:15:57;;;;;;;36.17;20.63;;;;;;;6.27;100.00;100530.53;5116990;28;20197;-86
2021/12/15 04:18:25;;;;;;;33.13;19.80;;;;;;;6.28;100.00;100536.66;5111569;28;20189;-86
2021/12/15 04:20:55;;;;;;;37.03;21.10;;;;;;;6.37;100.00;100543.44;5111511;28;20223;-85
2021/12/15 04:23:24;;;;;;;159.13;28.77;;;;;;;6.24;100.00;100545.53;5108187;28;20187;-86
2021/12/15 04:25:56;;;;;;;112.93;26.07;;;;;;;6.24;100.00;100538.50;5115013;28;20187;-86
2021/12/15 04:28:29;;;;;;;64.37;23.33;;;;;;;6.27;100.00;100542.81;5115752;28;20199;-86
2021/12/15 04:31:04;;;;;;;156.13;29.57;;;;;;;6.14;100.00;100534.34;5112668;28;20229;-87
2021/12/15 04:33:35;;;;;;;44.43;20.87;;;;;;;6.31;100.00;100529.56;5113067;28;20311;-86
2021/12/15 04:36:07;;;;;;;95.00;25.27;;;;;;;6.21;100.00;100528.06;5105450;28;20244;-86
2021/12/15 04:38:37;;;;;;;91.40;25.87;;;;;;;6.13;100.00;100537.88;5115825;28;20191;-86
2021/12/15 04:41:10;;;;;;;61.93;23.13;;;;;;;6.18;100.00;100538.66;5111745;28;20211;-86
2021/12/15 04:44:03;;;;;;;47.67;21.87;;;;;;;6.19;100.00;100537.75;5115715;28;20226;-86
2021/12/15 04:46:34;;;;;;;70.03;25.07;;;;;;;6.14;100.00;100546.63;5115839;28;20288;-86
2021/12/15 04:49:05;;;;;;;44.63;22.43;;;;;;;6.18;100.00;100546.56;5108361;28;20198;-86
2021/12/15 04:51:35;;;;;;;55.13;22.37;;;;;;;6.27;100.00;100541.06;5107325;28;20207;-86
2021/12/15 04:54:04;;;;;;;65.93;22.73;;;;;;;6.37;100.00;100543.44;5109742;28;20199;-86
2021/12/15 04:56:32;;;;;;;52.40;23.93;;;;;;;6.26;100.00;100548.97;5006710;28;20202;-85
2021/12/15 04:59:02;;;;;;;56.27;23.37;;;;;;;6.30;100.00;100548.03;4962019;28;20190;-86
2021/12/15 05:01:30;;;;;;;86.53;24.60;;;;;;;6.15;100.00;100553.63;5007319;28;20225;-86
2021/12/15 05:03:58;;;;;;;97.43;24.73;;;;;;;6.18;100.00;100553.56;5008291;28;20253;-86
2021/12/15 05:06:27;;;;;;;80.60;25.83;;;;;;;6.23;100.00;100552.56;5005447;28;20198;-86
2021/12/15 05:08:55;;;;;;;65.10;23.30;;;;;;;6.23;100.00;100555.19;5008453;28;20210;-86
2021/12/15 05:11:24;;;;;;;84.33;26.57;;;;;;;6.13;100.00;100561.56;5011500;28;20274;-86
2021/12/15 05:13:52;;;;;;;48.50;22.73;;;;;;;6.28;100.00;100557.72;5023776;28;20191;-86
2021/12/15 05:16:22;;;;;;;83.90;24.53;;;;;;;6.28;100.00;100565.63;5114877;28;20191;-86
2021/12/15 05:18:50;;;;;;;53.40;22.90;;;;;;;6.24;100.00;100567.44;5107789;28;20203;-86
2021/12/15 05:21:22;;;;;;;94.60;26.47;;;;;;;6.18;100.00;100567.59;5114810;28;20222;-86
2021/12/15 05:23:56;;;;;;;180.60;32.10;;;;;;;6.09;100.00;100573.06;5108033;28;20272;-86
2021/12/15 05:26:24;;;;;;;55.20;23.73;;;;;;;6.24;100.00;100567.44;5108439;28;20199;-86
2021/12/15 05:28:53;;;;;;;151.23;27.90;;;;;;;6.02;100.00;100574.97;5114494;28;20198;-86
2021/12/15 05:31:22;;;;;;;106.07;26.70;;;;;;;6.12;100.00;100575.63;5106806;28;20245;-86
2021/12/15 05:33:51;;;;;;;117.70;28.23;;;;;;;6.25;100.00;100570.94;5115484;28;20229;-85
2021/12/15 05:36:22;;;;;;;171.30;30.53;;;;;;;6.09;100.00;100577.47;5075580;28;20198;-86
2021/12/15 05:38:51;;;;;;;113.23;25.33;;;;;;;6.06;100.00;100574.88;5104410;28;20236;-86
2021/12/15 05:41:21;;;;;;;125.57;28.20;;;;;;;6.04;100.00;100580.19;5107917;28;20268;-85
2021/12/15 05:43:50;;;;;;;165.23;28.90;;;;;;;6.06;100.00;100583.63;5112071;28;20507;-86
2021/12/15 05:46:18;;;;;;;114.67;29.10;;;;;;;6.16;100.00;100582.53;5119138;28;20191;-86
2021/12/15 05:48:48;;;;;;;189.00;32.40;;;;;;;6.08;100.00;100588.84;5109464;28;20195;-86
2021/12/15 05:51:16;;;;;;;130.43;29.27;;;;;;;6.19;100.00;100590.38;5105566;28;20217;-87
2021/12/15 05:53:46;;;;;;;103.37;28.27;;;;;;;6.17;100.00;100591.28;5108618;28;20198;-86
2021/12/15 05:56:14;;;;;;;96.53;27.03;;;;;;;6.33;100.00;100595.28;5112781;28;20220;-86
2021/12/15 05:58:43;;;;;;;79.87;25.77;;;;;;;6.24;100.00;100599.00;5113931;28;20194;-86
2021/12/15 06:01:11;;;;;;;57.83;24.67;;;;;;;6.23;100.00;100609.56;5105721;28;20217;-86
2021/12/15 06:03:40;;;;;;;59.90;25.27;;;;;;;6.31;100.00;100611.13;5110426;28;20228;-87
2021/12/15 06:06:09;;;;;;;48.57;24.83;;;;;;;6.38;100.00;100613.63;5107295;28;20199;-86
2021/12/15 06:08:38;;;;;;;52.27;25.97;;;;;;;6.47;100.00;100616.91;5110559;28;20202;-86
2021/12/15 06:11:06;;;;;;;56.27;26.93;;;;;;;6.36;100.00;100618.91;5108333;28;20233;-86
2021/12/15 06:13:35;;;;;;;88.60;27.03;;;;;;;6.42;100.00;100615.28;5107327;28;20203;-86
2021/12/15 06:16:06;;;;;;;74.60;26.33;;;;;;;6.47;100.00;100616.91;5112789;28;20191;-86
2021/12/15 06:18:34;;;;;;;84.50;28.17;;;;;;;6.44;100.00;100627.50;5107103;28;20730;-86
2021/12/15 06:21:03;;;;;;;57.07;25.70;;;;;;;6.43;100.00;100630.16;5119762;28;20187;-86
2021/12/15 06:23:35;;;;;;;60.33;26.97;;;;;;;6.46;100.00;100630.06;5119590;28;20256;-86
2021/12/15 06:26:06;;;;;;;62.30;26.33;;;;;;;6.43;100.00;100632.78;5115010;28;20187;-86
2021/12/15 06:28:35;;;;;;;67.70;29.33;;;;;;;6.39;100.00;100628.50;5118756;28;20195;-86
2021/12/15 06:31:07;;;;;;;90.33;31.07;;;;;;;6.37;100.00;100631.19;5113597;28;20214;-85
2021/12/15 06:33:38;;;;;;;85.60;28.70;;;;;;;6.48;100.00;100639.69;5111554;28;20199;-86
2021/12/15 06:36:07;;;;;;;153.77;35.00;;;;;;;6.30;100.00;100635.72;5117884;28;20209;-86
2021/12/15 06:38:42;;;;;;;86.73;30.30;;;;;;;6.26;100.00;100636.66;5115646;28;20210;-86
2021/12/15 06:41:12;;;;;;;56.97;26.47;;;;;;;6.33;100.00;100640.03;5007828;28;20200;-86
2021/12/15 06:43:44;;;;;;;64.53;26.23;;;;;;;6.38;100.00;100637.31;5010797;28;20201;-86
2021/12/15 06:46:36;;;;;;;62.93;27.77;;;;;;;6.37;100.00;100643.44;5006310;28;20214;-86
2021/12/15 06:58:11;;;;;;;52.43;25.40;;;;;;;6.50;100.00;100663.34;4987652;28;20194;-86
2021/12/15 07:00:27;;;;;;;58.47;25.90;;;;;;;6.44;100.00;100669.59;5112830;28;20201;-85
2021/12/15 07:02:56;;;;;;;65.00;25.57;;;;;;;6.54;100.00;100663.22;5114351;28;20283;-85
2021/12/15 07:05:26;;;;;;;52.63;26.37;;;;;;;6.56;100.00;100673.72;5110784;28;20192;-86
2021/12/15 07:07:56;;;;;;;76.10;27.30;;;;;;;6.49;100.00;100674.78;5118985;28;20191;-86
2021/12/15 07:10:29;;;;;;;91.93;27.30;;;;;;;6.52;100.00;100666.78;5116139;28;20191;-86
2021/12/15 07:12:58;;;;;;;121.23;30.77;;;;;;;6.27;100.00;100662.09;5112289;28;20663;-86
2021/12/15 07:15:28;;;;;;;131.03;31.37;;;;;;;6.16;100.00;100669.34;5111986;28;20199;-86
2021/12/15 07:18:03;;;;;;;73.40;29.13;;;;;;;6.18;100.00;100675.47;5111644;28;20198;-85
2021/12/15 07:20:38;;;;;;;77.10;27.53;;;;;;;6.21;100.00;100679.78;5108539;28;20645;-85
2021/12/15 07:23:10;;;;;;;140.73;30.97;;;;;;;6.17;100.00;100681.59;5112595;28;20645;-86
2021/12/15 07:25:41;;;;;;;88.63;28.63;;;;;;;6.28;100.00;100687.50;5108779;28;20202;-86
2021/12/15 07:28:15;;;;;;;85.57;29.77;;;;;;;6.25;100.00;100684.94;5110182;28;20244;-87
2021/12/15 07:30:44;;;;;;;75.60;28.33;;;;;;;6.30;100.00;100687.47;5116062;28;20191;-86
2021/12/15 07:33:16;;;;;;;97.63;31.23;;;;;;;6.21;100.00;100690.31;5110205;28;20194;-86
2021/12/15 07:35:44;;;;;;;95.60;31.30;;;;;;;6.07;100.00;100695.84;5116852;28;20210;-86
2021/12/15 07:38:14;;;;;;;58.67;26.97;;;;;;;6.30;100.00;100695.38;5108078;28;20240;-86
2021/12/15 07:40:44;;;;;;;57.43;27.80;;;;;;;6.38;100.00;100700.47;5106140;28;20232;-87
2021/12/15 07:43:23;;;;;;;83.23;30.27;;;;;;;6.23;100.00;100706.91;5104508;28;20219;-86
2021/12/15 07:45:58;;;;;;;83.97;30.10;;;;;;;6.41;100.00;100703.88;5110225;28;20203;-87
2021/12/15 07:48:30;;;;;;;65.93;28.30;;;;;;;6.34;100.00;100694.38;5107533;28;20198;-86
2021/12/15 07:51:00;;;;;;;96.80;29.37;;;;;;;6.30;100.00;100698.88;5111375;28;20251;-85
2021/12/15 07:53:29;;;;;;;75.43;29.53;;;;;;;6.39;100.00;100704.84;5107559;28;20191;-86
2021/12/15 07:55:59;;;;;;;73.53;29.83;;;;;;;6.34;100.00;100699.66;5115211;28;20199;-86
2021/12/15 07:58:28;;;;;;;76.10;29.47;;;;;;;6.25;100.00;100697.22;5109079;28;20201;-86
2021/12/15 08:00:59;;;;;;;69.43;28.80;;;;;;;6.38;100.00;100695.22;5116393;28;20213;-86
2021/12/15 08:03:29;;;;;;;72.90;29.83;;;;;;;6.26;100.00;100691.06;5033785;28;20213;-86
2021/12/15 08:05:58;;;;;;;62.47;28.47;;;;;;;6.27;100.00;100691.06;5032663;28;20190;-85
2021/12/15 08:08:27;;;;;;;67.73;27.93;;;;;;;6.42;100.00;100695.09;5031125;28;20194;-86
2021/12/15 08:10:59;;;;;;;62.40;27.90;;;;;;;6.34;100.00;100686.50;5033601;28;20193;-86
2021/12/15 08:13:31;;;;;;;72.77;30.53;;;;;;;6.38;100.00;100688.19;5031540;28;20202;-85
2021/12/15 08:16:00;;;;;;;69.10;29.47;;;;;;;6.40;100.00;100694.28;5032426;28;20201;-86
2021/12/15 08:18:29;;;;;;;81.60;30.90;;;;;;;6.26;100.00;100689.28;5031591;28;20198;-86
2021/12/15 08:20:59;;;;;;;77.40;28.57;;;;;;;6.46;100.00;100688.84;5040650;28;20187;-86
2021/12/15 08:23:27;;;;;;;69.13;30.10;;;;;;;6.29;100.00;100691.88;5112064;28;20241;-86
2021/12/15 08:25:55;;;;;;;68.73;29.37;;;;;;;6.37;100.00;100696.06;5114820;28;20209;-86
2021/12/15 08:28:25;;;;;;;76.93;29.00;;;;;;;6.31;100.00;100702.38;5108439;28;20198;-86
2021/12/15 08:30:54;;;;;;;67.60;29.17;;;;;;;6.23;100.00;100699.03;5112237;28;20195;-86
2021/12/15 08:33:24;;;;;;;69.53;28.90;;;;;;;6.29;100.00;100693.66;5116190;28;20191;-85
2021/12/15 08:35:58;;;;;;;71.90;29.43;;;;;;;6.34;100.00;100694.38;5110333;28;20244;-86
2021/12/15 08:38:28;;;;;;;65.43;30.57;;;;;;;6.30;100.00;100701.50;5112771;28;20194;-85
2021/12/15 08:40:57;;;;;;;61.47;29.73;;;;;;;6.41;100.00;100700.41;5111308;28;20195;-86
2021/12/15 08:43:28;;;;;;;76.87;34.17;;;;;;;6.20;100.00;100699.09;5107136;28;20207;-85
2021/12/15 08:46:01;;;;;;;86.53;32.47;;;;;;;6.23;100.00;100701.66;5112188;28;20198;-86
2021/12/15 08:48:30;;;;;;;70.23;30.57;;;;;;;6.17;100.00;100710.53;5108501;28;20199;-85
2021/12/15 08:50:58;;;;;;;63.97;30.73;;;;;;;6.29;100.00;100709.44;5110076;28;20595;-87
2021/12/15 08:53:26;;;;;;;95.90;34.07;;;;;;;6.21;100.00;100706.09;5103038;28;20347;-86
2021/12/15 08:55:55;;;;;;;89.63;33.20;;;;;;;6.30;100.00;100709.38;5110823;28;20210;-86
2021/12/15 08:58:24;;;;;;;79.47;33.13;;;;;;;6.39;100.00;100718.00;5114794;28;20195;-85
2021/12/15 09:00:57;;;;;;;94.93;33.87;;;;;;;6.28;100.00;100716.47;5114727;28;20188;-86
2021/12/15 09:03:28;;;;;;;115.10;37.30;;;;;;;6.29;100.00;100720.81;5115045;28;20218;-85
2021/12/15 09:05:58;;;;;;;95.77;35.60;;;;;;;6.27;100.00;100717.34;5114895;28;20197;-86
2021/12/15 09:08:28;;;;;;;79.07;33.23;;;;;;;6.32;100.00;100710.22;5117021;28;20193;-86
2021/12/15 09:10:59;;;;;;;81.27;34.53;;;;;;;6.25;100.00;100716.50;5115846;28;20195;-86
2021/12/15 09:13:30;;;;;;;122.37;36.27;;;;;;;6.16;100.00;100715.81;5109539;28;20358;-86
2021/12/15 09:16:03;;;;;;;91.47;33.87;;;;;;;6.29;100.00;100723.44;5114873;28;20191;-85
2021/12/15 09:18:32;;;;;;;130.60;35.50;;;;;;;6.20;100.00;100721.00;5110168;28;20195;-86
2021/12/15 09:21:01;;;;;;;71.10;33.23;;;;;;;6.29;100.00;100722.59;5108619;28;20198;-86
2021/12/15 09:23:30;;;;;;;66.10;33.30;;;;;;;6.47;100.00;100731.84;5106283;28;20248;-86
2021/12/15 09:25:59;;;;;;;132.23;36.73;;;;;;;6.43;100.00;100727.53;5111355;28;20219;-86
2021/12/15 09:28:30;;;;;;;94.10;34.60;;;;;;;6.44;100.00;100729.28;5100697;28;20220;-86
2021/12/15 09:30:58;;;;;;;97.90;34.30;;;;;;;6.39;100.00;100731.16;5105853;28;20187;-86
2021/12/15 09:33:30;;;;;;;111.20;36.20;;;;;;;6.31;100.00;100726.03;5109675;28;20193;-86
2021/12/15 09:35:59;;;;;;;109.93;34.77;;;;;;;6.31;100.00;100732.16;5108654;28;20203;-86
2021/12/15 09:38:28;;;;;;;87.03;36.23;;;;;;;6.41;100.00;100735.47;5107324;28;20202;-86
2021/12/15 09:41:00;;;;;;;79.63;34.37;;;;;;;6.37;100.00;100735.56;5104790;28;20206;-86
2021/12/15 09:43:31;;;;;;;77.00;35.17;;;;;;;6.60;100.00;100728.03;5105842;28;20214;-86
2021/12/15 09:46:06;;;;;;;71.23;34.30;;;;;;;6.63;100.00;100735.00;5111563;28;20206;-86
2021/12/15 10:05:29;;;;;;;78.50;36.07;;;;;;;6.78;100.00;100735.53;5110470;28;20205;-86
2021/12/15 10:19:29;;;;;;;74.00;35.83;;;;;;;6.61;100.00;100724.50;5131946;27;20202;-85
2021/12/15 10:22:08;;;;;;;89.83;38.17;;;;;;;6.56;100.00;100715.81;5132590;28;20190;-85
2021/12/15 10:24:47;;;;;;;76.10;37.77;;;;;;;6.67;100.00;100724.38;5134352;27;20221;-85
2021/12/15 10:27:20;;;;;;;76.83;37.30;;;;;;;6.56;100.00;100723.72;5135611;27;20186;-85
2021/12/15 10:30:06;;;;;;;77.50;37.00;;;;;;;6.53;100.00;100724.66;5125668;27;20660;-84
2021/12/15 10:32:39;;;;;;;72.87;37.47;;;;;;;6.60;100.00;100726.28;5131372;27;20233;-85
2021/12/15 10:35:11;;;;;;;79.67;37.50;;;;;;;6.66;100.00;100727.91;5130012;27;20194;-84
2021/12/15 10:37:42;;;;;;;72.83;38.13;;;;;;;6.68;100.00;100730.50;5133940;28;20190;-85
2021/12/15 10:40:19;;;;;;;75.43;37.53;;;;;;;6.78;100.00;100730.25;5133324;27;20206;-86
2021/12/15 10:43:00;;;;;;;76.03;37.10;;;;;;;6.76;100.00;100723.31;5135666;27;20198;-85
2021/12/15 10:45:41;;;;;;;80.23;37.23;;;;;;;6.69;100.00;100724.34;5129601;27;20197;-86
2021/12/15 10:48:20;;;;;;;72.63;36.80;;;;;;;6.77;100.00;100723.25;5127869;27;20198;-85
2021/12/15 10:50:49;;;;;;;74.97;38.97;;;;;;;6.77;100.00;100718.00;5128361;27;20702;-85
2021/12/15 10:53:31;;;;;;;68.77;36.67;;;;;;;6.92;100.00;100718.53;5131087;27;20206;-85
2021/12/15 10:55:59;;;;;;;70.43;37.23;;;;;;;6.83;100.00;100714.34;5128934;27;20197;-85
2021/12/15 10:58:36;;;;;;;69.73;36.43;;;;;;;6.92;100.00;100714.13;5128710;27;20197;-86
2021/12/15 11:01:23;;;;;;;71.57;37.57;;;;;;;6.94;100.00;100717.56;5130949;28;20194;-85
2021/12/15 11:03:53;;;;;;;74.20;38.63;;;;;;;6.92;100.00;100724.66;5124945;28;20190;-85
2021/12/15 11:06:27;;;;;;;71.17;38.13;;;;;;;7.02;100.00;100722.66;5130630;27;20247;-85
2021/12/15 11:09:10;;;;;;;74.20;38.20;;;;;;;7.11;100.00;100723.31;5126427;27;20195;-85
2021/12/15 11:11:57;;;;;;;70.80;36.47;;;;;;;6.96;100.00;100725.47;5131791;27;20245;-85
2021/12/15 11:14:30;;;;;;;69.77;36.73;;;;;;;6.89;100.00;100712.44;5131126;27;20183;-85
2021/12/15 11:17:13;;;;;;;69.33;38.37;;;;;;;7.08;100.00;100719.88;5130955;27;20202;-84
2021/12/15 11:19:48;;;;;;;74.90;40.93;;;;;;;7.18;100.00;100716.13;5123312;27;20202;-85
2021/12/15 11:22:47;;;;;;;75.77;41.60;;;;;;;7.24;100.00;100720.34;5132240;27;20194;-85
2021/12/15 11:25:22;;;;;;;75.30;39.23;;;;;;;7.07;100.00;100712.91;5115893;28;20191;-84
2021/12/15 11:27:55;;;;;;;73.00;39.93;;;;;;;7.20;100.00;100709.03;5069820;28;20199;-85
2021/12/15 11:30:29;;;;;;;68.37;37.27;;;;;;;7.26;100.00;100705.41;5075496;28;20200;-84
2021/12/15 11:33:01;;;;;;;70.47;39.00;;;;;;;7.33;100.00;100712.22;5071810;28;20303;-85
2021/12/15 11:35:34;;;;;;;66.83;37.90;;;;;;;7.37;100.00;100709.47;5015229;28;20203;-87
2021/12/15 11:38:07;;;;;;;71.50;38.47;;;;;;;7.35;100.00;100697.25;5014376;28;20199;-86
2021/12/15 11:40:40;;;;;;;73.03;37.63;;;;;;;7.38;100.00;100691.88;5009194;28;20249;-85
2021/12/15 11:43:11;;;;;;;70.87;37.60;;;;;;;7.28;100.00;100688.63;5014164;28;20194;-85
2021/12/15 11:45:43;;;;;;;72.20;39.17;;;;;;;7.28;100.00;100688.63;5014238;28;20193;-85
2021/12/15 11:48:17;;;;;;;68.93;38.07;;;;;;;7.40;100.00;100685.66;5011473;28;20709;-85
2021/12/15 11:50:49;;;;;;;69.80;38.03;;;;;;;7.38;100.00;100686.63;5019513;28;20354;-85
2021/12/15 11:53:35;;;;;;;69.97;39.10;;;;;;;7.38;100.00;100687.47;5076630;28;20215;-85
2021/12/15 11:56:30;;;;;;;69.77;38.43;;;;;;;7.51;100.00;100684.50;5117366;27;20270;-85
2021/12/15 11:59:18;;;;;;;66.47;36.77;;;;;;;7.56;100.00;100680.00;5114068;28;20193;-84
2021/12/15 12:02:01;;;;;;;70.87;38.57;;;;;;;7.38;100.00;100690.13;5092202;28;20191;-84
2021/12/15 12:04:38;;;;;;;67.37;37.03;;;;;;;7.45;100.00;100688.19;5089988;28;20199;-84
2021/12/15 12:07:20;;;;;;;67.43;37.97;;;;;;;7.51;100.00;100671.31;5094548;28;20202;-85
2021/12/15 12:09:53;;;;;;;64.17;36.40;;;;;;;7.62;100.00;100672.75;5087127;28;20188;-86
2021/12/15 12:12:27;;;;;;;61.90;35.37;;;;;;;7.60;100.00;100669.31;5087217;28;20718;-85
2021/12/15 12:14:56;;;;;;;58.73;34.67;;;;;;;7.69;100.00;100679.59;5089222;28;20195;-85
2021/12/15 12:17:28;;;;;;;62.90;36.87;;;;;;;7.68;100.00;100675.25;5090785;28;20184;-85
2021/12/15 12:20:01;;;;;;;59.47;34.63;;;;;;;7.72;100.00;100676.00;5104543;28;20193;-85
2021/12/15 12:22:33;;;;;;;61.43;35.50;;;;;;;7.60;100.00;100671.06;5115637;28;20197;-84
2021/12/15 12:25:04;;;;;;;60.73;33.50;;;;;;;7.67;100.00;100675.28;5113419;28;20240;-84
2021/12/15 12:27:34;;;;;;;54.33;32.87;;;;;;;7.57;100.00;100666.75;5112853;28;20490;-85
2021/12/15 12:30:08;;;;;;;55.37;33.60;;;;;;;7.72;100.00;100673.38;5112214;28;20191;-84
2021/12/15 12:32:37;;;;;;;54.70;31.77;;;;;;;7.79;100.00;100666.16;5116508;27;20201;-85
2021/12/15 12:35:09;;;;;;;56.83;32.90;;;;;;;7.81;100.00;100664.34;5111420;28;20207;-84